Time;durP1;ratioP1;P1;durP2;ratioP2;P2;SDS_P1;SDS_P2;PMS_P1;PMS_P2;Temp;Humidity;BMP_temperature;BMP_pressure;BME280_temperature;BME280_humidity;BME280_pressure;Samples;Min_cycle;Max_cycle;Signal;HPM_P1;HPM_P2
2022/12/13 00:11:16;;;;;;;3.03;1.13;;;24.00;43.00;;;;;;4298357;23;20100;-50
2022/12/13 00:13:40;;;;;;;2.22;0.98;;;24.10;44.00;;;;;;4082420;28;20043;-54
2022/12/13 00:16:05;;;;;;;2.28;0.77;;;24.10;44.20;;;;;;4066958;29;20130;-55
2022/12/13 00:18:28;;;;;;;0.68;0.63;;;24.10;43.40;;;;;;4069300;29;20107;-57
2022/12/13 00:20:51;;;;;;;2.45;0.90;;;24.20;43.70;;;;;;4061887;29;20106;-56
2022/12/13 00:23:13;;;;;;;5.50;1.67;;;24.20;43.80;;;;;;4062737;28;20119;-53
2022/12/13 00:25:36;;;;;;;4.75;1.05;;;24.20;44.60;;;;;;4160673;23;20404;-37
2022/12/13 00:27:58;;;;;;;4.72;0.73;;;24.30;45.00;;;;;;4057755;29;20044;-39
2022/12/13 00:30:21;;;;;;;2.30;0.77;;;24.30;45.20;;;;;;4057341;29;20036;-40
2022/12/13 00:32:44;;;;;;;6.38;1.00;;;24.40;45.30;;;;;;4055273;29;20471;-39
2022/12/13 00:35:06;;;;;;;2.13;0.85;;;24.40;45.40;;;;;;4050675;29;20044;-38
2022/12/13 00:37:29;;;;;;;1.30;0.52;;;24.40;45.50;;;;;;4052895;29;20123;-38
2022/12/13 00:39:52;;;;;;;4.40;0.70;;;24.50;45.50;;;;;;4058311;29;20158;-39
2022/12/13 00:42:14;;;;;;;1.08;0.60;;;24.50;45.50;;;;;;4144262;23;20063;-37
2022/12/13 00:44:37;;;;;;;0.73;0.40;;;24.50;45.40;;;;;;4058143;29;20103;-40
2022/12/13 00:46:59;;;;;;;5.22;0.60;;;24.60;45.50;;;;;;4057526;29;20040;-41
2022/12/13 00:49:22;;;;;;;1.27;0.40;;;24.60;45.30;;;;;;4056972;29;20133;-40
2022/12/13 00:51:47;;;;;;;2.90;0.63;;;24.60;45.50;;;;;;4060048;29;20044;-40
2022/12/13 00:54:17;;;;;;;1.27;0.57;;;24.70;45.40;;;;;;4057510;29;20048;-39
2022/12/13 00:56:40;;;;;;;1.15;0.55;;;24.70;45.50;;;;;;4064119;23;20055;-45
2022/12/13 00:59:04;;;;;;;1.52;0.50;;;24.70;45.30;;;;;;4054397;29;20040;-48
2022/12/13 01:01:29;;;;;;;1.92;0.80;;;24.80;45.40;;;;;;4053887;29;20047;-43
2022/12/13 01:03:57;;;;;;;0.98;0.25;;;24.80;45.40;;;;;;4056759;29;20076;-42
2022/12/13 01:06:44;;;;;;;0.77;0.40;;;24.80;45.20;;;;;;4055860;29;20064;-44
2022/12/13 01:09:11;;;;;;;0.93;0.40;;;24.90;45.20;;;;;;4055663;29;20138;-45
2022/12/13 01:11:34;;;;;;;2.60;0.77;;;24.90;45.10;;;;;;4050932;29;20051;-44
2022/12/13 01:13:57;;;;;;;0.70;0.30;;;24.90;45.10;;;;;;4068458;29;20511;-45
2022/12/13 01:16:19;;;;;;;0.60;0.43;;;24.90;45.10;;;;;;4058050;29;20051;-44
2022/12/13 01:18:42;;;;;;;0.45;0.30;;;25.00;45.20;;;;;;4057831;29;20094;-45
2022/12/13 01:21:16;;;;;;;0.70;0.50;;;25.00;45.10;;;;;;4057953;29;20044;-45
2022/12/13 01:23:40;;;;;;;1.23;0.40;;;25.00;45.10;;;;;;4055214;29;20058;-43
2022/12/13 01:26:04;;;;;;;0.52;0.30;;;25.10;45.00;;;;;;4055965;29;20072;-43
2022/12/13 01:28:27;;;;;;;0.95;0.40;;;25.10;45.00;;;;;;4058292;29;20066;-46
2022/12/13 01:30:57;;;;;;;0.75;0.50;;;25.10;45.00;;;;;;4054639;29;20685;-46
2022/12/13 01:33:19;;;;;;;1.10;0.40;;;25.10;44.90;;;;;;4052117;29;20119;-48
2022/12/13 01:35:42;;;;;;;1.75;0.40;;;25.20;45.00;;;;;;4044106;29;20148;-45
2022/12/13 01:38:04;;;;;;;1.65;0.50;;;25.20;44.80;;;;;;4061728;29;20119;-46
2022/12/13 01:40:27;;;;;;;1.42;0.35;;;25.30;44.80;;;;;;4059528;29;20107;-47
2022/12/13 01:42:50;;;;;;;0.50;0.47;;;25.30;44.80;;;;;;4056413;29;20032;-43
2022/12/13 01:45:27;;;;;;;2.13;0.57;;;25.30;44.80;;;;;;4060547;29;20055;-47
2022/12/13 01:47:57;;;;;;;0.40;0.30;;;25.30;44.70;;;;;;4060188;29;20036;-46
2022/12/13 01:50:33;;;;;;;0.95;0.30;;;25.30;44.60;;;;;;4060399;29;20135;-44
2022/12/13 01:52:57;;;;;;;1.00;0.50;;;25.40;44.00;;;;;;4060211;29;20127;-47
2022/12/13 01:55:21;;;;;;;0.63;0.43;;;25.30;43.40;;;;;;4061091;29;20066;-47
2022/12/13 01:57:48;;;;;;;2.13;0.68;;;25.30;42.20;;;;;;4052902;29;20489;-47
2022/12/13 02:00:12;;;;;;;1.02;0.75;;;25.30;42.10;;;;;;4060293;29;20051;-47
2022/12/13 02:02:35;;;;;;;2.00;0.60;;;25.30;42.20;;;;;;4051732;29;20060;-42
2022/12/13 02:05:18;;;;;;;6.93;0.82;;;25.20;41.80;;;;;;4058491;29;20040;-45
2022/12/13 02:07:43;;;;;;;1.10;0.40;;;25.30;42.70;;;;;;4059527;29;20488;-45
2022/12/13 02:10:07;;;;;;;1.25;0.43;;;25.30;43.30;;;;;;4054301;29;20060;-50
2022/12/13 02:12:33;;;;;;;2.35;0.30;;;25.30;43.70;;;;;;4059210;29;20059;-46
2022/12/13 02:14:56;;;;;;;0.90;0.52;;;25.40;44.10;;;;;;4046296;29;20037;-47
2022/12/13 02:17:35;;;;;;;0.60;0.30;;;25.40;44.00;;;;;;4045989;29;20044;-47
2022/12/13 02:20:19;;;;;;;0.57;0.38;;;25.40;44.00;;;;;;4053396;29;20501;-44
2022/12/13 02:22:56;;;;;;;;;;;25.50;44.20;;;;;;4062010;29;20099;-45
2022/12/13 02:25:37;;;;;;;1.90;0.45;;;25.50;44.30;;;;;;4056590;29;19914;-49
2022/12/13 02:28:15;;;;;;;2.08;0.38;;;25.60;44.20;;;;;;4056990;29;20052;-46
2022/12/13 02:30:42;;;;;;;3.30;0.70;;;25.60;44.60;;;;;;4051511;29;20423;-50
2022/12/13 02:33:36;;;;;;;3.33;0.85;;;25.60;44.30;;;;;;4057609;29;20043;-48
2022/12/13 02:36:17;;;;;;;1.67;0.63;;;25.60;44.00;;;;;;4060999;29;20084;-47
2022/12/13 02:38:54;;;;;;;6.80;0.98;;;25.70;43.80;;;;;;4058388;29;20048;-54
2022/12/13 02:41:37;;;;;;;2.08;0.47;;;25.70;43.60;;;;;;4058240;29;20860;-49
2022/12/13 02:44:11;;;;;;;1.73;0.40;;;25.70;43.50;;;;;;4045418;29;20115;-45
2022/12/13 02:46:38;;;;;;;5.68;0.80;;;25.70;43.30;;;;;;4059402;29;20309;-44
2022/12/13 02:49:02;;;;;;;2.28;0.52;;;25.70;43.30;;;;;;4059510;29;20501;-46
2022/12/13 02:51:26;;;;;;;3.75;0.60;;;25.70;42.90;;;;;;4056611;29;20179;-45
2022/12/13 02:53:49;;;;;;;3.72;0.95;;;25.70;42.90;;;;;;4056613;29;20514;-52
2022/12/13 02:56:11;;;;;;;2.78;1.00;;;25.70;42.90;;;;;;4058440;29;20056;-47
2022/12/13 02:58:38;;;;;;;1.50;0.57;;;25.70;43.00;;;;;;4059620;29;20040;-48
2022/12/13 03:01:22;;;;;;;3.33;0.73;;;25.80;43.70;;;;;;4058518;29;20054;-45
2022/12/13 03:04:11;;;;;;;5.13;0.68;;;25.80;44.00;;;;;;4057123;29;20044;-43
2022/12/13 03:06:48;;;;;;;3.78;0.70;;;25.90;43.80;;;;;;4057353;29;20232;-46
2022/12/13 03:09:47;;;;;;;1.80;0.50;;;25.90;43.60;;;;;;4057007;29;20535;-47
2022/12/13 03:15:12;;;;;;;2.70;0.70;;;25.90;43.60;;;;;;4057908;29;20040;-42
2022/12/13 03:17:42;;;;;;;1.33;0.40;;;25.90;43.60;;;;;;4057972;29;20059;-45
2022/12/13 03:20:06;;;;;;;0.30;0.30;;;26.00;43.70;;;;;;4058428;29;20048;-44
2022/12/13 03:22:32;;;;;;;1.38;0.43;;;26.00;43.70;;;;;;4044586;29;20493;-50
2022/12/13 03:24:55;;;;;;;2.67;0.68;;;26.00;43.80;;;;;;4058326;29;20036;-45
2022/12/13 03:27:18;;;;;;;0.43;0.30;;;26.10;43.90;;;;;;4057459;29;20051;-49
2022/12/13 03:29:40;;;;;;;2.30;0.40;;;26.10;44.10;;;;;;4056747;29;20416;-53
2022/12/13 03:32:03;;;;;;;2.17;0.60;;;26.10;43.90;;;;;;4057008;29;20069;-51
2022/12/13 03:34:25;;;;;;;3.47;0.57;;;26.10;43.70;;;;;;4053638;29;20044;-51
2022/12/13 03:36:48;;;;;;;1.73;0.60;;;26.10;43.70;;;;;;4056028;29;20048;-46
2022/12/13 03:39:11;;;;;;;1.40;0.40;;;26.20;43.80;;;;;;4055558;29;20579;-51
2022/12/13 03:41:34;;;;;;;5.70;0.73;;;26.20;43.90;;;;;;4058079;29;20568;-48
2022/12/13 03:44:00;;;;;;;0.93;0.37;;;26.20;44.10;;;;;;4056155;29;20796;-55
2022/12/13 03:46:22;;;;;;;3.28;0.68;;;26.30;44.20;;;;;;4055442;29;20076;-55
2022/12/13 03:48:45;;;;;;;3.58;0.60;;;26.30;44.20;;;;;;4055603;29;20086;-48
2022/12/13 03:51:07;;;;;;;2.08;0.63;;;26.30;44.00;;;;;;4057549;29;20047;-46
2022/12/13 03:53:30;;;;;;;0.70;0.47;;;26.40;44.50;;;;;;4050630;29;20036;-49
2022/12/13 03:55:53;;;;;;;1.75;0.50;;;26.50;44.50;;;;;;4054021;29;20629;-49
2022/12/13 03:58:16;;;;;;;1.58;0.40;;;26.50;44.50;;;;;;4054563;29;20055;-50
2022/12/13 04:00:39;;;;;;;0.43;0.20;;;26.50;44.50;;;;;;4055339;29;20476;-45
2022/12/13 04:03:01;;;;;;;0.63;0.22;;;26.60;44.50;;;;;;4055663;29;20103;-49
2022/12/13 04:05:24;;;;;;;1.65;0.40;;;26.60;44.60;;;;;;4066243;29;20046;-47
2022/12/13 04:07:47;;;;;;;0.90;0.30;;;26.70;44.20;;;;;;4055143;29;20044;-47
2022/12/13 04:10:09;;;;;;;0.70;0.17;;;26.70;44.40;;;;;;4053132;29;20572;-50
2022/12/13 04:15:13;;;;;;;0.30;0.30;;;26.80;44.40;;;;;;4054866;29;20428;-48
2022/12/13 04:17:35;;;;;;;1.60;0.50;;;26.90;44.30;;;;;;4053823;29;20114;-47
2022/12/13 04:19:58;;;;;;;2.83;0.52;;;26.90;44.20;;;;;;4054576;29;20043;-47
2022/12/13 04:22:20;;;;;;;1.00;0.35;;;27.00;44.30;;;;;;4043462;29;20051;-49
2022/12/13 04:24:43;;;;;;;0.95;0.40;;;27.00;44.40;;;;;;4054711;29;20040;-45
2022/12/13 04:27:06;;;;;;;0.65;0.20;;;27.10;44.40;;;;;;4046986;29;20091;-44
2022/12/13 04:29:30;;;;;;;1.85;0.52;;;27.10;44.40;;;;;;4050777;29;20040;-48
2022/12/13 04:31:52;;;;;;;1.13;0.40;;;27.20;44.50;;;;;;4052955;29;20050;-43
2022/12/13 04:34:15;;;;;;;1.58;0.28;;;27.30;44.50;;;;;;4052161;29;20698;-47
2022/12/13 04:36:37;;;;;;;0.20;0.20;;;27.40;44.50;;;;;;4053632;29;20066;-44
2022/12/13 04:39:01;;;;;;;1.48;0.50;;;27.40;44.30;;;;;;4053073;29;20044;-47
2022/12/13 04:41:23;;;;;;;;;;;27.50;44.30;;;;;;4053736;29;20028;-46
2022/12/13 04:43:51;;;;;;;0.40;0.40;;;27.60;44.10;;;;;;4052713;29;20333;-50
2022/12/13 04:46:14;;;;;;;0.20;0.20;;;27.70;44.10;;;;;;4054869;29;20172;-46
2022/12/13 04:48:36;;;;;;;1.60;0.73;;;27.80;44.10;;;;;;4064133;29;20047;-46
2022/12/13 04:50:59;;;;;;;3.65;0.52;;;27.90;44.20;;;;;;4045925;29;20040;-43
2022/12/13 04:53:22;;;;;;;1.73;0.30;;;28.00;44.10;;;;;;4054191;29;20051;-47
2022/12/13 04:55:45;;;;;;;2.35;0.22;;;28.00;43.90;;;;;;4052597;29;20048;-47
2022/12/13 04:58:07;;;;;;;2.55;0.30;;;28.20;44.00;;;;;;4053568;29;20397;-46
2022/12/13 05:00:30;;;;;;;0.30;0.30;;;28.20;44.60;;;;;;4048991;29;20035;-44
2022/12/13 05:02:52;;;;;;;0.68;0.30;;;28.30;43.90;;;;;;4051643;29;20488;-45
2022/12/13 05:05:15;;;;;;;1.17;0.15;;;28.40;44.00;;;;;;4052656;29;20048;-47
2022/12/13 05:07:38;;;;;;;0.25;0.20;;;28.50;43.80;;;;;;4052745;29;20216;-44
2022/12/13 05:10:00;;;;;;;0.55;0.20;;;28.50;43.60;;;;;;4044229;29;20092;-49
2022/12/13 05:12:23;;;;;;;0.45;0.30;;;28.60;43.60;;;;;;4058218;29;20050;-48
2022/12/13 05:14:46;;;;;;;3.63;0.40;;;28.70;43.60;;;;;;4054125;29;20040;-50
2022/12/13 05:17:08;;;;;;;0.50;0.30;;;28.80;43.70;;;;;;4057221;29;20040;-50
2022/12/13 05:19:31;;;;;;;0.63;0.30;;;28.90;43.70;;;;;;4050906;29;20116;-46
2022/12/13 05:21:53;;;;;;;1.23;0.70;;;29.00;43.70;;;;;;4049825;29;20028;-46
2022/12/13 05:24:16;;;;;;;1.20;0.20;;;29.00;43.50;;;;;;4056882;29;20063;-45
2022/12/13 05:26:39;;;;;;;0.83;0.40;;;29.10;43.40;;;;;;4055099;29;20075;-47
2022/12/13 05:29:01;;;;;;;0.82;0.30;;;29.20;43.70;;;;;;4056503;29;20047;-50
2022/12/13 05:31:24;;;;;;;0.20;0.20;;;29.30;43.60;;;;;;4055903;29;20036;-45
2022/12/13 05:33:47;;;;;;;0.63;0.40;;;29.30;43.40;;;;;;4051185;29;20120;-48
2022/12/13 05:36:10;;;;;;;0.10;0.10;;;29.40;43.40;;;;;;4061418;29;20103;-45
2022/12/13 05:38:32;;;;;;;0.25;0.20;;;29.50;43.30;;;;;;4055054;29;20047;-47
2022/12/13 05:40:55;;;;;;;1.20;0.30;;;29.60;43.30;;;;;;4061793;29;20048;-49
2022/12/13 05:43:18;;;;;;;0.20;0.20;;;29.60;43.20;;;;;;4056990;29;20549;-46
2022/12/13 05:45:40;;;;;;;0.17;0.10;;;29.70;43.10;;;;;;4057056;29;20072;-45
2022/12/13 05:48:03;;;;;;;0.90;0.20;;;29.80;43.10;;;;;;4061834;29;20497;-47
2022/12/13 05:50:26;;;;;;;0.13;0.13;;;29.90;43.10;;;;;;4061315;29;20044;-47
2022/12/13 05:52:49;;;;;;;0.80;0.32;;;30.00;43.10;;;;;;4058182;29;20443;-49
2022/12/13 05:55:12;;;;;;;0.93;0.40;;;30.10;43.00;;;;;;4055991;29;20114;-50
2022/12/13 05:57:35;;;;;;;0.40;0.30;;;30.10;42.90;;;;;;4066780;29;20043;-48
2022/12/13 05:59:57;;;;;;;0.63;0.23;;;30.20;42.90;;;;;;4053647;29;20052;-50
2022/12/13 06:02:20;;;;;;;0.50;0.20;;;30.30;42.80;;;;;;4057612;29;20063;-51
2022/12/13 06:04:43;;;;;;;0.65;0.20;;;30.40;42.90;;;;;;4052446;29;20727;-52
2022/12/13 06:07:06;;;;;;;2.85;0.50;;;30.40;42.70;;;;;;4056649;29;20054;-51
2022/12/13 06:09:29;;;;;;;0.40;0.27;;;30.50;42.70;;;;;;4054727;29;20389;-49
2022/12/13 06:11:52;;;;;;;0.15;0.10;;;30.50;42.60;;;;;;4046201;29;20047;-49
2022/12/13 06:14:15;;;;;;;0.53;0.30;;;30.60;42.70;;;;;;4061415;29;20032;-52
2022/12/13 06:16:38;;;;;;;0.73;0.28;;;30.70;42.80;;;;;;4055354;29;20419;-51
2022/12/13 06:19:00;;;;;;;0.53;0.20;;;30.70;42.70;;;;;;4060717;29;20051;-51
2022/12/13 06:21:23;;;;;;;0.22;0.20;;;30.80;42.60;;;;;;4058977;29;20316;-47
2022/12/13 06:23:45;;;;;;;0.57;0.30;;;30.80;42.60;;;;;;4056118;29;20551;-49
2022/12/13 06:26:08;;;;;;;0.40;0.20;;;30.90;42.70;;;;;;4052537;29;20136;-47
2022/12/13 06:28:31;;;;;;;0.22;0.22;;;30.90;42.80;;;;;;4055647;29;20039;-50
2022/12/13 06:30:54;;;;;;;0.20;0.20;;;31.00;42.80;;;;;;4050888;29;20062;-46
2022/12/13 06:33:16;;;;;;;0.40;0.40;;;31.00;42.80;;;;;;4056338;29;20042;-46
2022/12/13 06:35:39;;;;;;;0.70;0.20;;;31.10;42.90;;;;;;4054618;29;20170;-49
2022/12/13 06:38:01;;;;;;;0.35;0.20;;;31.00;42.90;;;;;;4054702;29;20051;-48
2022/12/13 06:40:24;;;;;;;0.20;0.20;;;31.00;43.00;;;;;;4038228;29;20068;-57
2022/12/13 06:42:47;;;;;;;2.10;0.30;;;31.10;43.10;;;;;;4054123;29;20075;-48
2022/12/13 06:45:10;;;;;;;1.10;0.47;;;31.10;42.70;;;;;;4055786;29;20184;-47
2022/12/13 06:47:32;;;;;;;1.35;0.52;;;31.00;41.80;;;;;;4049559;29;20072;-45
2022/12/13 06:49:55;;;;;;;1.33;0.63;;;31.00;41.30;;;;;;4051000;29;20051;-48
2022/12/13 06:52:18;;;;;;;4.40;1.17;;;30.90;40.90;;;;;;4059863;29;20511;-47
2022/12/13 06:54:42;;;;;;;3.90;1.70;;;30.90;40.70;;;;;;4058775;29;20559;-46
2022/12/13 06:57:04;;;;;;;3.35;1.48;;;30.80;40.30;;;;;;4058847;29;20056;-47
2022/12/13 06:59:27;;;;;;;2.17;1.40;;;30.80;40.40;;;;;;4054353;29;20052;-48
2022/12/13 07:01:49;;;;;;;3.85;1.48;;;30.80;40.30;;;;;;4053814;29;20500;-45
2022/12/13 07:04:12;;;;;;;4.57;1.63;;;30.70;40.40;;;;;;4059987;29;20114;-49
2022/12/13 07:06:35;;;;;;;3.25;1.00;;;30.80;40.60;;;;;;4051745;29;20083;-48
2022/12/13 07:08:58;;;;;;;1.80;0.90;;;30.70;41.10;;;;;;4058921;29;20951;-47
2022/12/13 07:11:25;;;;;;;4.03;1.27;;;30.70;41.30;;;;;;4044000;29;20072;-48
2022/12/13 07:13:48;;;;;;;11.07;1.17;;;30.70;41.70;;;;;;4058059;29;20051;-50
2022/12/13 07:16:11;;;;;;;2.97;0.98;;;30.80;42.00;;;;;;4057719;29;20062;-45
2022/12/13 07:18:34;;;;;;;1.50;0.75;;;30.80;42.20;;;;;;4071600;29;20167;-52
2022/12/13 07:20:56;;;;;;;1.03;0.60;;;30.80;42.80;;;;;;4060857;29;20040;-45
2022/12/13 07:23:19;;;;;;;3.42;0.88;;;30.80;42.50;;;;;;4060415;29;20063;-49
2022/12/13 07:25:41;;;;;;;1.83;0.90;;;30.80;42.70;;;;;;4055157;29;20479;-49
2022/12/13 07:28:07;;;;;;;1.33;0.63;;;30.80;42.80;;;;;;4059053;29;20150;-52
2022/12/13 07:30:32;;;;;;;3.78;1.00;;;30.70;43.00;;;;;;4056929;29;20044;-50
2022/12/13 07:32:54;;;;;;;0.95;0.55;;;30.70;42.90;;;;;;4056203;29;20421;-48
2022/12/13 07:35:17;;;;;;;1.63;0.60;;;30.60;42.80;;;;;;4057015;29;20036;-48
2022/12/13 07:37:40;;;;;;;2.55;0.50;;;30.60;42.90;;;;;;4057160;29;20048;-49
2022/12/13 07:40:03;;;;;;;2.75;0.70;;;30.60;42.90;;;;;;4057707;29;20052;-49
2022/12/13 07:42:25;;;;;;;2.37;0.73;;;30.60;43.00;;;;;;4055216;29;20046;-47
2022/12/13 07:44:48;;;;;;;1.75;0.60;;;30.50;43.00;;;;;;4055575;29;20123;-50
2022/12/13 07:47:10;;;;;;;1.20;0.73;;;30.50;43.00;;;;;;4058497;29;20071;-48
2022/12/13 07:49:34;;;;;;;1.15;0.40;;;30.50;43.10;;;;;;4040655;29;20048;-51
2022/12/13 07:51:57;;;;;;;3.17;0.65;;;30.40;43.00;;;;;;4053763;29;20072;-49
2022/12/13 07:54:19;;;;;;;1.42;0.32;;;30.40;43.00;;;;;;4056953;29;20479;-52
2022/12/13 07:56:42;;;;;;;0.32;0.30;;;30.40;43.20;;;;;;4055789;29;20124;-56
2022/12/13 07:59:04;;;;;;;1.65;0.68;;;30.30;43.20;;;;;;4041756;29;20048;-53
2022/12/13 08:01:28;;;;;;;2.75;0.80;;;30.30;43.30;;;;;;4067620;29;20459;-48
2022/12/13 08:03:50;;;;;;;3.03;0.40;;;30.30;43.30;;;;;;4058993;29;20047;-50
2022/12/13 08:06:13;;;;;;;1.40;0.47;;;30.30;43.40;;;;;;4057592;29;20683;-52
2022/12/13 08:08:36;;;;;;;1.75;0.20;;;30.20;43.40;;;;;;4056255;29;20890;-47
2022/12/13 08:11:04;;;;;;;1.52;0.68;;;30.20;43.40;;;;;;4057506;29;20165;-47
2022/12/13 08:13:26;;;;;;;1.85;0.50;;;30.20;43.50;;;;;;4057908;29;20043;-51
2022/12/13 08:15:49;;;;;;;4.03;0.57;;;30.20;43.60;;;;;;4048105;29;20040;-50
2022/12/13 08:18:11;;;;;;;1.52;0.52;;;30.10;43.60;;;;;;4052116;29;20503;-54
2022/12/13 08:20:34;;;;;;;0.73;0.47;;;30.10;43.60;;;;;;4053301;29;20047;-55
2022/12/13 08:22:57;;;;;;;2.88;0.77;;;30.00;43.70;;;;;;4050783;29;20471;-52
2022/12/13 08:25:20;;;;;;;2.83;0.82;;;30.00;43.80;;;;;;4054508;29;20050;-45
2022/12/13 08:27:42;;;;;;;2.70;0.93;;;30.00;43.70;;;;;;4054311;29;20036;-49
2022/12/13 08:30:05;;;;;;;3.35;0.95;;;30.00;42.60;;;;;;4050172;29;20052;-44
2022/12/13 08:32:28;;;;;;;6.10;1.38;;;29.90;42.20;;;;;;4050760;29;20248;-42
2022/12/13 08:34:51;;;;;;;1.80;0.57;;;29.90;43.30;;;;;;4049838;29;20174;-44
2022/12/13 08:37:14;;;;;;;3.80;1.08;;;29.70;43.00;;;;;;4035192;29;20040;-46
2022/12/13 08:39:37;;;;;;;3.67;0.93;;;29.60;43.70;;;;;;4051761;29;20142;-43
2022/12/13 08:42:00;;;;;;;2.05;0.60;;;29.50;44.30;;;;;;4035625;29;20479;-46
2022/12/13 08:44:23;;;;;;;7.73;1.13;;;29.50;44.70;;;;;;4049610;29;20048;-44
2022/12/13 08:46:45;;;;;;;3.47;1.10;;;29.40;44.90;;;;;;4051630;29;20263;-50
2022/12/13 08:49:08;;;;;;;2.65;1.05;;;29.30;44.20;;;;;;4051494;29;20518;-48
2022/12/13 08:51:30;;;;;;;2.83;1.08;;;29.20;44.00;;;;;;4050963;29;20136;-47
2022/12/13 08:53:53;;;;;;;2.28;1.00;;;29.20;44.90;;;;;;4051450;29;20071;-48
2022/12/13 08:56:17;;;;;;;9.20;1.90;;;29.20;45.40;;;;;;4053254;29;20056;-45
2022/12/13 08:58:40;;;;;;;7.43;1.13;;;29.20;45.70;;;;;;4057541;29;20066;-44
2022/12/13 09:01:06;;;;;;;5.53;1.13;;;29.20;45.90;;;;;;4052824;29;20044;-43
2022/12/13 09:03:28;;;;;;;3.72;0.85;;;29.20;45.90;;;;;;4053965;29;20039;-43
2022/12/13 09:05:51;;;;;;;2.53;0.80;;;29.20;45.90;;;;;;4056249;29;20056;-42
2022/12/13 09:08:14;;;;;;;2.88;1.17;;;29.20;45.90;;;;;;4053275;29;20150;-43
2022/12/13 09:10:37;;;;;;;2.42;0.90;;;29.10;45.90;;;;;;4053733;29;20044;-43
2022/12/13 09:13:00;;;;;;;2.53;0.70;;;29.10;46.00;;;;;;4053306;29;20122;-43
2022/12/13 09:15:22;;;;;;;2.92;0.73;;;29.10;46.10;;;;;;4053192;29;20051;-43
2022/12/13 09:17:45;;;;;;;9.10;0.88;;;29.10;46.10;;;;;;4054597;29;20036;-48
2022/12/13 09:20:10;;;;;;;1.95;0.57;;;29.10;46.20;;;;;;4052382;29;20434;-44
2022/12/13 09:22:32;;;;;;;1.75;0.80;;;29.10;46.30;;;;;;4053200;29;20078;-46
2022/12/13 09:24:55;;;;;;;1.30;0.60;;;29.10;46.30;;;;;;4054294;29;20048;-45
2022/12/13 09:27:18;;;;;;;1.52;0.45;;;29.00;46.20;;;;;;4067000;29;20427;-50
2022/12/13 09:29:41;;;;;;;2.70;0.50;;;29.10;46.20;;;;;;4055336;29;20056;-44
2022/12/13 09:32:03;;;;;;;1.63;0.68;;;29.00;46.20;;;;;;4055126;29;20460;-45
2022/12/13 09:34:26;;;;;;;1.47;0.43;;;29.00;46.20;;;;;;4046476;29;20048;-46
2022/12/13 09:36:49;;;;;;;3.65;0.95;;;29.00;46.30;;;;;;4054035;29;20315;-45
2022/12/13 09:39:12;;;;;;;1.42;0.90;;;29.00;46.30;;;;;;4054224;29;20055;-43
2022/12/13 09:41:41;;;;;;;1.23;0.55;;;29.00;46.30;;;;;;4053727;29;20048;-44
2022/12/13 09:44:32;;;;;;;1.65;0.50;;;29.00;46.40;;;;;;4050523;29;20036;-47
2022/12/13 09:46:57;;;;;;;1.23;0.50;;;28.90;46.30;;;;;;4054616;29;20047;-46
2022/12/13 09:49:29;;;;;;;1.52;0.50;;;28.90;46.40;;;;;;4053992;29;20496;-45
2022/12/13 09:51:57;;;;;;;1.38;0.63;;;28.90;46.40;;;;;;4038757;29;20075;-48
2022/12/13 09:54:22;;;;;;;2.03;0.93;;;28.90;46.50;;;;;;4054338;29;20217;-45
2022/12/13 09:56:49;;;;;;;3.42;0.75;;;28.90;46.60;;;;;;4056804;29;20060;-44
2022/12/13 09:59:13;;;;;;;2.22;0.43;;;28.90;46.60;;;;;;4057076;29;20052;-47
2022/12/13 10:01:36;;;;;;;5.03;0.88;;;28.90;46.70;;;;;;4056742;29;20040;-47
2022/12/13 10:04:00;;;;;;;1.30;0.60;;;28.80;46.60;;;;;;4056681;29;20384;-47
2022/12/13 10:06:27;;;;;;;1.23;0.60;;;28.80;46.60;;;;;;4056734;29;20531;-48
2022/12/13 10:08:54;;;;;;;2.33;0.50;;;28.80;46.70;;;;;;4055855;29;20044;-43
2022/12/13 10:11:18;;;;;;;1.65;0.63;;;28.80;46.60;;;;;;4058021;29;20040;-43
2022/12/13 10:13:46;;;;;;;1.83;0.68;;;28.80;46.60;;;;;;4057610;29;20130;-44
2022/12/13 10:16:24;;;;;;;1.42;0.73;;;28.80;46.60;;;;;;4058455;29;20035;-46
2022/12/13 10:18:46;;;;;;;0.95;0.43;;;28.80;46.60;;;;;;4069789;29;20087;-48
2022/12/13 10:21:37;;;;;;;5.53;1.00;;;28.80;46.70;;;;;;4058504;29;20067;-46
2022/12/13 10:24:29;;;;;;;1.85;0.73;;;28.70;46.60;;;;;;4055223;29;20031;-50
2022/12/13 10:26:52;;;;;;;2.35;0.65;;;28.80;46.80;;;;;;4043324;29;20569;-43
2022/12/13 10:29:15;;;;;;;1.65;0.45;;;28.70;46.60;;;;;;4059244;29;20051;-45
2022/12/13 10:31:44;;;;;;;1.50;0.68;;;28.70;46.80;;;;;;4059184;29;20141;-45
2022/12/13 10:34:16;;;;;;;2.08;0.80;;;28.70;46.80;;;;;;4057676;29;20457;-49
2022/12/13 10:36:42;;;;;;;1.73;0.70;;;28.70;46.80;;;;;;4056774;29;20103;-49
2022/12/13 10:39:05;;;;;;;2.58;0.80;;;28.70;46.80;;;;;;4057708;29;20084;-45
2022/12/13 10:41:43;;;;;;;2.72;0.98;;;28.70;46.80;;;;;;4056493;29;20123;-46
2022/12/13 10:44:11;;;;;;;1.30;0.80;;;28.70;46.90;;;;;;4057326;29;20028;-44
2022/12/13 10:46:34;;;;;;;1.27;0.80;;;28.70;46.80;;;;;;4054384;29;20049;-47
2022/12/13 10:48:58;;;;;;;2.88;0.75;;;28.70;46.80;;;;;;4050951;29;20158;-45
2022/12/13 10:51:22;;;;;;;1.48;0.88;;;28.70;46.80;;;;;;4069751;29;20421;-45
2022/12/13 10:53:55;;;;;;;1.85;0.85;;;28.70;46.80;;;;;;4056873;29;20320;-48
2022/12/13 10:56:19;;;;;;;2.67;0.98;;;28.70;46.80;;;;;;4056438;29;20083;-47
2022/12/13 10:58:45;;;;;;;1.65;0.70;;;28.70;46.70;;;;;;4056765;29;20146;-43
2022/12/13 11:01:10;;;;;;;3.20;1.10;;;28.70;47.10;;;;;;4057453;29;20447;-46
2022/12/13 11:03:34;;;;;;;2.35;1.10;;;28.70;46.80;;;;;;4043143;29;20032;-46
2022/12/13 11:06:16;;;;;;;1.65;0.70;;;28.70;46.80;;;;;;4057266;29;20048;-46
2022/12/13 11:08:40;;;;;;;2.30;0.60;;;28.70;46.90;;;;;;4059834;29;20119;-43
2022/12/13 11:11:06;;;;;;;2.08;0.95;;;28.70;46.90;;;;;;4060477;29;20182;-42
2022/12/13 11:13:52;;;;;;;1.65;0.90;;;28.70;46.80;;;;;;4056169;29;20080;-44
2022/12/13 11:16:23;;;;;;;2.47;0.88;;;28.70;46.80;;;;;;4060461;29;20109;-46
2022/12/13 11:18:57;;;;;;;2.35;0.77;;;28.70;46.70;;;;;;4056560;29;20154;-43
2022/12/13 11:21:31;;;;;;;1.13;0.60;;;28.70;46.70;;;;;;4058966;29;20519;-44
2022/12/13 11:23:56;;;;;;;2.45;1.08;;;28.70;46.70;;;;;;4058186;29;20107;-45
2022/12/13 11:26:21;;;;;;;1.40;0.47;;;28.70;46.60;;;;;;4058806;29;20070;-43
2022/12/13 11:29:18;;;;;;;1.95;0.80;;;28.70;46.60;;;;;;4059361;29;20124;-49
2022/12/13 11:31:52;;;;;;;1.35;0.63;;;28.70;46.60;;;;;;4057837;29;20145;-47
2022/12/13 11:34:33;;;;;;;1.02;0.60;;;28.70;46.60;;;;;;4055902;29;20044;-48
2022/12/13 11:37:11;;;;;;;2.10;0.90;;;28.70;46.60;;;;;;4059415;29;20389;-46
2022/12/13 11:40:04;;;;;;;2.10;0.82;;;28.60;46.60;;;;;;4058780;29;20055;-43
2022/12/13 11:42:44;;;;;;;2.97;0.90;;;28.70;46.50;;;;;;4054433;29;20050;-43
2022/12/13 11:45:18;;;;;;;1.77;0.65;;;28.70;46.30;;;;;;4056525;29;20044;-44
2022/12/13 11:47:46;;;;;;;3.40;1.27;;;28.60;46.30;;;;;;4059048;29;20040;-44
2022/12/13 11:50:18;;;;;;;2.45;1.02;;;28.60;46.40;;;;;;4055697;29;20540;-44
2022/12/13 11:52:53;;;;;;;2.97;0.85;;;28.60;46.40;;;;;;4047125;29;20040;-44
2022/12/13 11:55:35;;;;;;;1.95;0.70;;;28.60;46.40;;;;;;4053969;29;20434;-43
2022/12/13 11:57:57;;;;;;;1.80;0.85;;;28.60;46.30;;;;;;4055519;29;20142;-42
2022/12/13 12:00:35;;;;;;;3.22;1.10;;;28.60;46.30;;;;;;4057197;29;20067;-44
2022/12/13 12:03:46;;;;;;;4.03;1.20;;;28.50;46.30;;;;;;4058002;29;20633;-44
2022/12/13 12:06:38;;;;;;;3.25;0.90;;;28.50;46.30;;;;;;4040250;29;20071;-43
2022/12/13 12:09:04;;;;;;;3.20;0.95;;;28.50;46.30;;;;;;4055940;29;20036;-44
2022/12/13 12:11:27;;;;;;;6.97;1.60;;;28.50;46.30;;;;;;4041031;29;20037;-44
2022/12/13 12:14:34;;;;;;;3.78;1.00;;;28.50;46.40;;;;;;4054665;29;20046;-42
2022/12/13 12:16:59;;;;;;;2.35;0.98;;;28.40;46.40;;;;;;4055261;29;20092;-41
2022/12/13 12:19:25;;;;;;;2.30;0.70;;;28.40;46.30;;;;;;4052963;29;20116;-43
2022/12/13 12:22:15;;;;;;;5.70;1.30;;;28.40;46.30;;;;;;4053142;29;20188;-42
2022/12/13 12:24:56;;;;;;;1.73;0.80;;;28.40;46.40;;;;;;4054951;29;20131;-42
2022/12/13 12:27:38;;;;;;;2.67;0.77;;;28.40;46.30;;;;;;4055206;29;20040;-42
2022/12/13 12:30:15;;;;;;;3.38;1.33;;;28.30;46.30;;;;;;4056385;29;20048;-42
2022/12/13 12:32:53;;;;;;;2.70;0.77;;;28.30;46.30;;;;;;4055941;29;20587;-44
2022/12/13 12:35:25;;;;;;;2.97;0.90;;;28.30;46.30;;;;;;4069083;29;20051;-45
2022/12/13 12:38:03;;;;;;;1.00;0.52;;;28.20;46.20;;;;;;4056430;29;20063;-45
2022/12/13 12:40:33;;;;;;;2.00;0.80;;;28.20;46.40;;;;;;4054734;29;20090;-46
2022/12/13 12:43:17;;;;;;;1.58;0.73;;;28.20;46.40;;;;;;4052787;29;20705;-43
2022/12/13 12:46:11;;;;;;;1.13;0.55;;;28.20;46.50;;;;;;4055372;29;20040;-43
2022/12/13 12:49:02;;;;;;;2.27;0.63;;;28.10;46.30;;;;;;4056667;29;20126;-43
2022/12/13 12:52:05;;;;;;;2.15;0.90;;;28.10;46.30;;;;;;4056779;29;20592;-45
2022/12/13 12:54:47;;;;;;;2.60;0.95;;;28.10;46.40;;;;;;4047259;29;20040;-42
2022/12/13 12:57:38;;;;;;;1.67;0.80;;;28.00;46.40;;;;;;4067669;29;20447;-42
2022/12/13 13:00:08;;;;;;;1.70;0.70;;;28.00;46.50;;;;;;4040534;29;20083;-44
2022/12/13 13:02:58;;;;;;;2.75;1.13;;;28.00;46.40;;;;;;4056743;29;20036;-42